Time;durP1;ratioP1;P1;durP2;ratioP2;P2;SDS_P1;SDS_P2;PMS_P1;PMS_P2;Temp;Humidity;BMP_temperature;BMP_pressure;BME280_temperature;BME280_humidity;BME280_pressure;Samples;Min_cycle;Max_cycle;Signal;HPM_P1;HPM_P2
2022/07/05 00:00:25;;;;;;;5.15;4.65;;;;;;;21.01;45.37;101995.69;5052552;28;20063;-65
2022/07/05 00:02:53;;;;;;;7.35;5.00;;;;;;;20.97;45.50;101999.72;5052630;28;20525;-65
2022/07/05 00:05:20;;;;;;;5.72;5.07;;;;;;;20.90;45.24;102000.31;5051570;28;20049;-64
2022/07/05 00:07:46;;;;;;;5.88;5.20;;;;;;;20.83;45.10;101984.66;5053076;28;20048;-64
2022/07/05 00:10:13;;;;;;;5.30;4.80;;;;;;;20.73;45.23;101981.94;5052543;28;20140;-64
2022/07/05 00:12:41;;;;;;;6.00;4.88;;;;;;;20.67;45.40;101984.41;5052791;28;20179;-64
2022/07/05 00:15:08;;;;;;;6.57;5.38;;;;;;;20.60;45.72;101981.38;5052404;28;20060;-64
2022/07/05 00:17:35;;;;;;;6.20;5.60;;;;;;;20.54;45.56;101982.84;5052443;28;20037;-65
2022/07/05 00:20:03;;;;;;;6.57;5.70;;;;;;;20.49;45.65;101985.16;5052507;28;20045;-64
2022/07/05 00:22:33;;;;;;;8.45;6.50;;;;;;;20.43;45.93;101988.47;5052382;28;20048;-65
2022/07/05 00:25:00;;;;;;;7.30;5.75;;;;;;;20.39;45.94;101987.03;5052259;28;20115;-64
2022/07/05 00:27:26;;;;;;;8.10;5.68;;;;;;;20.35;46.18;101984.69;5051358;28;20499;-64
2022/07/05 00:29:53;;;;;;;7.93;5.97;;;;;;;20.27;46.31;101986.28;5052233;28;20471;-64
2022/07/05 00:32:20;;;;;;;7.03;6.32;;;;;;;20.23;46.51;101986.72;5052274;28;20045;-65
2022/07/05 00:35:02;;;;;;;8.85;6.53;;;;;;;20.17;46.16;101985.44;5050039;28;20049;-64
2022/07/05 00:37:28;;;;;;;6.95;6.25;;;;;;;20.10;46.62;101981.56;5050555;28;20045;-64
2022/07/05 00:39:55;;;;;;;6.53;5.85;;;;;;;20.04;46.22;101981.22;5049364;28;20041;-64
2022/07/05 00:44:53;;;;;;;7.03;5.97;;;;;;;19.94;46.53;101984.81;5050632;28;20044;-64
2022/07/05 00:47:19;;;;;;;7.32;6.13;;;;;;;19.91;46.45;101982.38;5050554;28;20036;-64
2022/07/05 00:49:46;;;;;;;7.57;6.22;;;;;;;19.88;46.55;101984.53;5050584;28;20060;-64
2022/07/05 00:52:13;;;;;;;7.82;6.80;;;;;;;19.83;46.95;101986.81;5052953;28;20041;-64
2022/07/05 00:55:01;;;;;;;8.00;6.88;;;;;;;19.76;46.94;101981.06;5053620;28;20495;-64
2022/07/05 00:57:28;;;;;;;7.18;6.25;;;;;;;19.70;46.84;101988.94;5054187;28;20036;-64
2022/07/05 00:59:55;;;;;;;8.20;6.72;;;;;;;19.65;47.00;101982.03;5053958;28;20041;-65
2022/07/05 01:04:53;;;;;;;9.15;6.57;;;;;;;19.60;47.26;101978.88;5053723;28;20132;-65
2022/07/05 01:07:22;;;;;;;8.20;6.43;;;;;;;19.56;47.39;101982.03;5053822;28;20052;-65
2022/07/05 01:09:49;;;;;;;9.70;7.28;;;;;;;19.52;47.35;101986.00;5053779;28;20572;-65
2022/07/05 01:12:17;;;;;;;7.32;6.60;;;;;;;19.46;47.29;101992.00;5053693;28;20124;-65
2022/07/05 01:14:45;;;;;;;8.18;5.90;;;;;;;19.40;47.27;101981.66;5052664;28;20049;-64
2022/07/05 01:17:12;;;;;;;7.65;6.45;;;;;;;19.34;47.43;101993.97;5052499;28;20040;-66
2022/07/05 01:19:39;;;;;;;11.68;7.20;;;;;;;19.31;47.68;101992.34;5053632;28;20047;-65
2022/07/05 01:22:12;;;;;;;7.20;6.50;;;;;;;19.30;47.74;101995.22;5054515;28;20041;-64
2022/07/05 01:24:39;;;;;;;7.82;6.75;;;;;;;19.29;47.55;101985.31;5052420;28;20499;-65
2022/07/05 01:27:07;;;;;;;8.32;7.07;;;;;;;19.29;48.04;101988.06;5053097;28;20040;-66
2022/07/05 01:29:34;;;;;;;11.88;8.05;;;;;;;19.28;47.68;101989.06;5052274;28;20045;-65
2022/07/05 01:32:00;;;;;;;9.57;6.78;;;;;;;19.25;47.90;101984.75;5053130;28;20041;-65
2022/07/05 01:34:27;;;;;;;9.57;7.20;;;;;;;19.21;48.06;101993.31;5051656;28;20402;-65
2022/07/05 01:36:54;;;;;;;10.77;6.78;;;;;;;19.16;48.34;101985.56;5052145;28;20052;-65
2022/07/05 01:39:20;;;;;;;9.02;6.47;;;;;;;19.14;48.34;101990.28;5051756;28;20037;-65
2022/07/05 01:41:48;;;;;;;10.10;6.90;;;;;;;19.14;48.15;101993.00;5053270;28;20033;-65
2022/07/05 01:44:15;;;;;;;6.95;6.25;;;;;;;19.10;48.30;101993.41;5033322;28;20045;-65
2022/07/05 01:46:43;;;;;;;7.30;5.88;;;;;;;19.05;48.51;101997.41;5044143;28;20053;-65
2022/07/05 01:49:14;;;;;;;7.75;5.72;;;;;;;18.99;48.16;101997.97;5051936;28;20056;-65
2022/07/05 01:51:54;;;;;;;9.05;5.57;;;;;;;18.95;48.55;101996.50;5052622;28;20045;-65
2022/07/05 01:54:21;;;;;;;9.45;6.00;;;;;;;18.94;48.22;101994.78;5051989;28;20479;-65
2022/07/05 01:56:48;;;;;;;6.82;6.13;;;;;;;18.92;48.25;101993.19;5051733;28;20045;-65
2022/07/05 01:59:15;;;;;;;6.78;6.18;;;;;;;18.88;48.66;101991.72;5053105;28;20459;-65
2022/07/05 02:01:41;;;;;;;11.10;7.22;;;;;;;18.82;48.40;101984.97;5050675;28;20041;-65
2022/07/05 02:04:10;;;;;;;7.63;6.45;;;;;;;18.77;48.51;101994.53;5052971;28;20396;-65
2022/07/05 02:06:37;;;;;;;12.50;6.65;;;;;;;18.72;48.29;101987.63;5051716;28;20481;-64
2022/07/05 02:09:07;;;;;;;8.27;6.72;;;;;;;18.67;48.79;101989.03;5052883;28;20376;-66
2022/07/05 02:11:35;;;;;;;9.57;7.30;;;;;;;18.62;48.64;101984.00;5051523;28;20640;-65
2022/07/05 02:14:03;;;;;;;6.10;5.50;;;;;;;18.58;48.76;101978.88;5050699;28;20457;-66
2022/07/05 02:16:33;;;;;;;4.70;4.20;;;;;;;18.52;48.77;101985.72;5051476;28;20127;-65
2022/07/05 02:19:00;;;;;;;5.47;4.97;;;;;;;18.48;48.77;101986.13;5051466;28;20549;-65
2022/07/05 02:21:30;;;;;;;5.63;4.95;;;;;;;18.41;48.87;101981.22;5051495;28;20045;-64
2022/07/05 02:23:58;;;;;;;7.20;6.45;;;;;;;18.37;48.63;101982.47;5051758;28;20052;-64
2022/07/05 02:26:28;;;;;;;6.65;5.95;;;;;;;18.34;49.17;101979.16;5051432;28;20041;-64
2022/07/05 02:28:56;;;;;;;6.82;5.47;;;;;;;18.30;48.88;101980.41;5051047;28;20511;-64
2022/07/05 02:31:23;;;;;;;8.10;6.22;;;;;;;18.25;49.34;101975.38;5051355;28;20041;-64
2022/07/05 02:33:54;;;;;;;8.55;6.30;;;;;;;18.22;49.22;101980.22;5051570;28;20056;-64
2022/07/05 02:36:23;;;;;;;7.95;6.45;;;;;;;18.19;49.07;101985.91;5051239;28;20049;-64
2022/07/05 02:38:50;;;;;;;7.10;6.13;;;;;;;18.18;49.25;101987.75;5052302;28;20510;-64
2022/07/05 02:41:16;;;;;;;7.25;5.85;;;;;;;18.16;49.25;101984.31;5052711;28;20043;-63
2022/07/05 02:43:47;;;;;;;6.43;5.82;;;;;;;18.12;49.19;101992.84;5051657;28;20060;-64
2022/07/05 02:46:16;;;;;;;8.18;5.90;;;;;;;18.09;49.50;101997.56;5051566;28;20037;-64
2022/07/05 02:48:44;;;;;;;7.10;6.40;;;;;;;18.09;49.16;101991.25;5051425;28;20041;-64
2022/07/05 02:51:11;;;;;;;7.57;6.35;;;;;;;18.06;49.40;101992.38;5051082;28;20076;-63
2022/07/05 02:53:38;;;;;;;5.63;4.88;;;;;;;17.99;49.40;101995.75;5051652;28;20490;-64
2022/07/05 02:56:06;;;;;;;4.90;4.40;;;;;;;17.90;49.32;102002.81;5053080;28;20044;-64
2022/07/05 02:58:33;;;;;;;4.78;4.32;;;;;;;17.84;49.18;102008.78;5052838;28;20041;-64
2022/07/05 03:01:01;;;;;;;6.43;5.00;;;;;;;17.79;49.18;102011.84;5053183;28;20045;-63
2022/07/05 03:03:32;;;;;;;5.93;5.32;;;;;;;17.73;49.48;102006.91;5053268;28;20045;-64
2022/07/05 03:06:00;;;;;;;6.40;5.80;;;;;;;17.72;49.58;102007.03;5053431;28;20045;-64
2022/07/05 03:08:27;;;;;;;7.57;5.80;;;;;;;17.70;49.68;102009.88;5053584;28;20059;-64
2022/07/05 03:10:55;;;;;;;7.18;6.45;;;;;;;17.69;49.41;102005.44;5055822;28;20518;-64
2022/07/05 03:13:26;;;;;;;8.77;6.05;;;;;;;17.69;50.09;102000.00;5050519;28;20115;-64
2022/07/05 03:15:53;;;;;;;7.50;6.80;;;;;;;17.68;49.71;102003.72;5049837;28;20396;-64
2022/07/05 03:18:22;;;;;;;9.95;6.28;;;;;;;17.68;49.88;102005.56;5050140;28;20041;-64
2022/07/05 03:20:49;;;;;;;9.07;6.45;;;;;;;17.66;49.84;102013.84;5050179;28;20083;-64
2022/07/05 03:23:18;;;;;;;7.82;6.57;;;;;;;17.63;49.80;102015.91;5050094;28;20477;-64
2022/07/05 03:25:50;;;;;;;8.52;6.57;;;;;;;17.59;50.09;102012.59;5049766;28;20037;-64
2022/07/05 03:28:18;;;;;;;9.50;7.28;;;;;;;17.60;50.21;102010.75;5050051;28;20045;-64
2022/07/05 03:30:45;;;;;;;9.15;6.32;;;;;;;17.59;50.18;102007.16;5050020;28;20043;-64
2022/07/05 03:33:14;;;;;;;7.57;6.80;;;;;;;17.57;50.33;102019.13;5049870;28;20041;-65
2022/07/05 03:35:43;;;;;;;6.15;5.55;;;;;;;17.56;49.98;102026.44;5050108;28;20045;-64
2022/07/05 03:38:12;;;;;;;8.07;6.15;;;;;;;17.52;50.20;102018.66;5049350;28;20410;-64
2022/07/05 03:40:39;;;;;;;6.47;5.88;;;;;;;17.51;50.32;102017.78;5049514;28;20045;-64
2022/07/05 03:43:07;;;;;;;8.57;6.53;;;;;;;17.52;50.61;102016.81;5051271;28;20064;-64
2022/07/05 03:45:37;;;;;;;8.93;6.72;;;;;;;17.52;50.46;102013.22;5051161;28;20037;-65
2022/07/05 03:48:05;;;;;;;8.50;6.95;;;;;;;17.52;50.58;102019.53;5049787;28;20049;-65
2022/07/05 03:50:52;;;;;;;7.53;6.22;;;;;;;17.50;50.25;102020.63;5029890;28;20510;-64
2022/07/05 03:53:19;;;;;;;7.75;6.63;;;;;;;17.45;50.46;102030.03;5031304;28;20083;-64
2022/07/05 03:55:46;;;;;;;8.40;6.95;;;;;;;17.44;50.82;102024.72;5029880;28;20484;-65
2022/07/05 03:58:13;;;;;;;9.45;7.13;;;;;;;17.46;50.70;102025.44;5031446;28;20049;-65
2022/07/05 04:00:40;;;;;;;9.77;7.45;;;;;;;17.46;51.02;102031.75;5048872;28;20045;-64
2022/07/05 04:03:15;;;;;;;8.70;7.82;;;;;;;17.50;51.02;102045.06;5049677;28;20072;-64
2022/07/05 04:05:43;;;;;;;8.88;7.25;;;;;;;17.47;51.25;102041.63;5049409;28;20045;-65
2022/07/05 04:08:10;;;;;;;10.38;8.65;;;;;;;17.46;51.10;102033.59;5049654;28;20041;-65
2022/07/05 04:10:42;;;;;;;10.57;9.07;;;;;;;17.43;51.60;102039.28;5049570;28;20060;-64
2022/07/05 04:13:12;;;;;;;9.40;7.75;;;;;;;17.36;51.59;102038.91;5049672;28;20122;-65
2022/07/05 04:15:38;;;;;;;11.05;8.93;;;;;;;17.32;51.61;102042.88;5049323;28;20072;-65
2022/07/05 04:18:05;;;;;;;14.05;8.82;;;;;;;17.34;52.02;102042.75;5049529;28;20041;-66
2022/07/05 04:20:36;;;;;;;11.00;9.30;;;;;;;17.41;52.07;102049.41;5049589;28;20480;-64
2022/07/05 04:23:08;;;;;;;12.00;9.60;;;;;;;17.49;52.61;102052.38;5050193;28;20037;-65
2022/07/05 04:25:35;;;;;;;14.15;9.93;;;;;;;17.55;52.38;102046.44;5051436;28;20350;-65
2022/07/05 04:28:08;;;;;;;13.55;10.50;;;;;;;17.62;52.69;102042.22;5053220;28;20067;-65
2022/07/05 04:30:37;;;;;;;14.95;9.60;;;;;;;17.68;52.42;102052.63;5053211;28;20045;-65
2022/07/05 04:33:10;;;;;;;14.27;9.27;;;;;;;17.70;52.58;102047.06;5053054;28;20052;-65
2022/07/05 04:35:38;;;;;;;14.27;9.88;;;;;;;17.69;52.91;102054.34;5053011;28;20507;-65
2022/07/05 04:38:04;;;;;;;10.50;9.18;;;;;;;17.72;52.97;102047.78;5053083;28;20547;-64
2022/07/05 04:40:33;;;;;;;14.65;10.05;;;;;;;17.76;53.20;102052.84;5053156;28;20136;-65
2022/07/05 04:43:04;;;;;;;13.48;11.15;;;;;;;17.80;53.04;102048.03;5054504;28;20041;-64
2022/07/05 04:45:31;;;;;;;12.43;11.15;;;;;;;17.86;53.50;102050.28;5053983;28;20040;-64
2022/07/05 04:47:58;;;;;;;14.90;11.25;;;;;;;17.91;53.66;102047.16;5052751;28;20059;-64
2022/07/05 04:50:27;;;;;;;12.98;10.63;;;;;;;17.92;53.77;102051.63;5053023;28;20512;-64
2022/07/05 04:52:56;;;;;;;12.73;10.75;;;;;;;17.93;54.04;102045.19;5053107;28;20055;-65
2022/07/05 04:55:23;;;;;;;12.02;10.73;;;;;;;18.00;53.86;102050.00;5054283;28;20094;-64
2022/07/05 04:57:49;;;;;;;13.55;10.40;;;;;;;18.09;53.98;102051.06;5053740;28;20047;-65
2022/07/05 05:00:16;;;;;;;12.77;11.40;;;;;;;18.19;54.22;102054.75;5054050;28;20410;-66
2022/07/05 05:02:44;;;;;;;13.45;11.30;;;;;;;18.26;54.49;102044.22;5054287;28;20373;-65
2022/07/05 05:05:11;;;;;;;14.75;12.57;;;;;;;18.34;54.42;102050.72;5053939;28;20068;-65
2022/07/05 05:07:41;;;;;;;14.00;12.32;;;;;;;18.45;54.41;102052.53;5054171;28;20132;-66
2022/07/05 05:10:08;;;;;;;16.20;11.57;;;;;;;18.54;54.31;102046.31;5053521;28;20045;-66
2022/07/05 05:12:37;;;;;;;13.05;11.75;;;;;;;18.59;54.30;102046.81;5053843;28;20052;-66
2022/07/05 05:15:09;;;;;;;15.45;11.90;;;;;;;18.64;54.13;102052.75;5054120;28;20566;-67
2022/07/05 05:17:40;;;;;;;22.70;12.95;;;;;;;18.68;54.63;102054.22;5053678;28;20049;-66
2022/07/05 05:20:11;;;;;;;16.30;13.65;;;;;;;18.75;54.94;102051.81;5053752;28;20554;-66
2022/07/05 05:22:39;;;;;;;17.75;13.50;;;;;;;18.81;54.84;102056.72;5053871;28;20051;-66
2022/07/05 05:25:07;;;;;;;18.90;14.23;;;;;;;18.86;54.56;102068.09;5053954;28;20056;-66
2022/07/05 05:27:33;;;;;;;21.27;13.98;;;;;;;18.94;54.77;102065.56;5054188;28;20408;-66
2022/07/05 05:30:00;;;;;;;16.95;15.13;;;;;;;19.03;54.91;102064.75;5053705;28;20059;-66
2022/07/05 05:32:31;;;;;;;17.48;14.57;;;;;;;19.09;55.06;102068.78;5053810;28;20148;-66
2022/07/05 05:34:58;;;;;;;18.10;15.05;;;;;;;19.13;54.98;102066.66;5053937;28;20041;-66
2022/07/05 05:37:24;;;;;;;20.95;15.40;;;;;;;19.12;54.61;102071.25;5052575;28;20040;-66
2022/07/05 05:39:51;;;;;;;19.08;15.82;;;;;;;19.15;55.10;102067.41;5054079;28;20045;-66
2022/07/05 05:42:17;;;;;;;17.42;13.98;;;;;;;19.19;54.67;102068.84;5053715;28;20124;-67
2022/07/05 05:44:44;;;;;;;19.77;16.60;;;;;;;19.24;54.96;102066.59;5053642;28;20064;-66
2022/07/05 05:47:11;;;;;;;19.48;16.92;;;;;;;19.28;54.92;102070.75;5054326;28;20056;-66
2022/07/05 05:49:42;;;;;;;19.55;16.70;;;;;;;19.34;54.96;102067.53;5053973;28;20426;-66
2022/07/05 05:52:09;;;;;;;18.95;16.92;;;;;;;19.41;54.85;102057.81;5054098;28;20045;-66
2022/07/05 05:54:39;;;;;;;18.02;15.88;;;;;;;19.50;55.27;102067.88;5054232;28;20120;-65
2022/07/05 05:57:06;;;;;;;21.33;16.80;;;;;;;19.63;55.32;102076.72;5052785;28;20063;-66
2022/07/05 05:59:33;;;;;;;16.75;14.95;;;;;;;19.77;55.03;102078.19;5053499;28;20412;-65
2022/07/05 06:01:59;;;;;;;17.67;15.73;;;;;;;19.88;55.09;102086.25;5052886;28;20045;-65
2022/07/05 06:04:27;;;;;;;22.48;17.40;;;;;;;19.96;55.33;102086.41;5052947;28;20443;-65
2022/07/05 06:06:54;;;;;;;19.40;17.48;;;;;;;20.00;54.87;102090.59;5053084;28;20488;-65
2022/07/05 06:09:20;;;;;;;19.88;17.73;;;;;;;20.03;55.17;102088.59;5053080;28;20056;-65
2022/07/05 06:11:47;;;;;;;22.10;19.73;;;;;;;20.04;54.92;102096.63;5052813;28;20063;-65
2022/07/05 06:14:13;;;;;;;20.95;18.75;;;;;;;20.07;54.73;102099.09;5052957;28;20060;-65
2022/07/05 06:16:40;;;;;;;21.55;17.33;;;;;;;20.13;55.32;102097.69;5052619;28;20072;-66
2022/07/05 06:19:06;;;;;;;19.02;15.48;;;;;;;20.22;55.37;102099.56;5052130;28;20102;-65
2022/07/05 06:21:33;;;;;;;20.33;15.38;;;;;;;20.30;54.96;102095.13;5052760;28;20483;-65
2022/07/05 06:23:59;;;;;;;16.83;14.82;;;;;;;20.37;54.97;102105.47;5052791;28;20095;-65
2022/07/05 06:26:26;;;;;;;19.60;15.93;;;;;;;20.46;55.21;102100.06;5052650;28;20128;-66
2022/07/05 06:28:53;;;;;;;18.27;15.27;;;;;;;20.58;54.97;102100.78;5051972;28;20052;-66
2022/07/05 06:31:19;;;;;;;19.27;15.38;;;;;;;20.68;54.89;102098.03;5052471;28;20055;-66
2022/07/05 06:33:47;;;;;;;18.02;15.48;;;;;;;20.77;54.68;102098.03;5052644;28;20561;-66
2022/07/05 06:36:14;;;;;;;18.00;14.98;;;;;;;20.85;54.85;102098.19;5052236;28;20053;-65
2022/07/05 06:38:40;;;;;;;21.77;15.70;;;;;;;20.94;54.73;102100.06;5051998;28;20040;-69
2022/07/05 06:41:07;;;;;;;18.98;15.27;;;;;;;21.04;54.41;102112.84;5052052;28;20044;-67
2022/07/05 06:43:38;;;;;;;19.75;15.45;;;;;;;21.09;54.15;102113.25;5052217;28;20053;-65
2022/07/05 06:46:08;;;;;;;18.07;14.80;;;;;;;21.15;54.27;102107.19;5050847;28;20091;-65
2022/07/05 06:48:35;;;;;;;22.35;14.90;;;;;;;21.19;53.80;102108.63;5051945;28;20037;-66
2022/07/05 06:51:02;;;;;;;18.75;15.40;;;;;;;21.28;53.91;102109.66;5052063;28;20045;-65
2022/07/05 06:53:32;;;;;;;19.33;14.60;;;;;;;21.39;54.00;102115.78;5051861;28;20048;-65
2022/07/05 06:55:59;;;;;;;14.23;12.75;;;;;;;21.49;53.92;102116.63;5051957;28;20047;-65
2022/07/05 06:58:25;;;;;;;15.65;12.95;;;;;;;21.54;53.27;102111.56;5052403;28;20041;-65
2022/07/05 07:00:53;;;;;;;17.05;14.52;;;;;;;21.61;53.52;102119.19;5052463;28;20124;-65
2022/07/05 07:04:05;;;;;;;19.83;14.35;;;;;;;21.73;53.22;102118.00;5051571;28;20056;-65
2022/07/05 07:06:49;;;;;;;16.55;13.07;;;;;;;21.82;52.71;102117.94;5051744;28;20072;-64
2022/07/05 07:09:18;;;;;;;14.95;12.60;;;;;;;21.91;52.90;102115.31;5051899;28;20430;-65
2022/07/05 07:11:45;;;;;;;12.02;10.63;;;;;;;21.99;52.53;102115.41;5051879;28;20040;-64
2022/07/05 07:14:12;;;;;;;13.77;11.13;;;;;;;22.06;52.18;102114.69;5051985;28;20150;-65
2022/07/05 07:16:39;;;;;;;12.38;10.07;;;;;;;22.15;52.08;102113.75;5051450;28;20141;-65
2022/07/05 07:19:06;;;;;;;15.70;10.73;;;;;;;22.20;51.78;102114.16;5051475;28;20128;-68
2022/07/05 07:21:40;;;;;;;10.50;9.40;;;;;;;22.29;51.57;102119.72;5051618;28;20045;-67
2022/07/05 07:24:07;;;;;;;9.60;8.60;;;;;;;22.41;51.51;102121.25;5051566;28;20506;-66
2022/07/05 07:27:02;;;;;;;11.23;9.32;;;;;;;22.52;51.28;102121.88;5051259;28;20041;-66
2022/07/05 07:29:22;;;;;;;9.32;8.23;;;;;;;22.69;51.11;102122.91;5051135;28;20395;-67
2022/07/05 07:31:48;;;;;;;9.90;8.40;;;;;;;22.84;50.67;102123.22;5050954;28;20471;-66
2022/07/05 07:34:15;;;;;;;12.80;8.23;;;;;;;23.03;50.61;102122.19;5051022;28;20045;-67
2022/07/05 07:36:42;;;;;;;10.20;8.02;;;;;;;23.21;50.28;102125.78;5051113;28;20372;-66
2022/07/05 07:39:08;;;;;;;11.38;7.75;;;;;;;23.43;49.82;102121.63;5051084;28;20315;-66
2022/07/05 07:41:35;;;;;;;8.95;7.45;;;;;;;23.61;49.68;102121.59;5050859;28;20061;-67
2022/07/05 07:44:04;;;;;;;5.78;5.13;;;;;;;23.75;48.95;102127.31;5051210;28;20056;-66
2022/07/05 07:46:31;;;;;;;8.57;5.80;;;;;;;23.86;48.72;102128.94;5051093;28;20059;-67
2022/07/05 07:48:58;;;;;;;7.28;5.00;;;;;;;23.95;48.09;102124.34;5051053;28;20473;-67
2022/07/05 07:51:24;;;;;;;8.98;6.30;;;;;;;24.04;47.94;102124.22;5050917;28;20041;-66
2022/07/05 07:53:53;;;;;;;9.38;5.82;;;;;;;24.09;47.54;102132.81;5050972;28;20110;-66
2022/07/05 07:56:27;;;;;;;7.22;4.97;;;;;;;24.18;47.60;102119.97;5051028;28;20124;-66
2022/07/05 07:58:53;;;;;;;7.97;6.53;;;;;;;24.32;47.37;102119.34;5050586;28;20132;-67
2022/07/05 08:01:20;;;;;;;6.10;4.82;;;;;;;24.44;47.18;102127.28;5053464;28;20059;-67
2022/07/05 08:03:47;;;;;;;5.78;5.20;;;;;;;24.54;46.86;102126.13;5067029;28;20045;-66
2022/07/05 08:06:15;;;;;;;6.07;4.43;;;;;;;24.65;46.51;102120.28;5072179;28;20049;-66
2022/07/05 08:08:44;;;;;;;6.28;4.85;;;;;;;24.75;46.45;102119.28;5055663;28;20041;-67
2022/07/05 08:11:12;;;;;;;7.75;5.38;;;;;;;24.82;45.97;102123.06;5055197;28;20047;-66
2022/07/05 08:13:40;;;;;;;5.40;4.90;;;;;;;24.88;45.74;102127.84;5055484;28;20053;-67
2022/07/05 08:16:10;;;;;;;6.97;4.82;;;;;;;24.98;45.75;102126.69;5054151;28;20068;-67
2022/07/05 08:21:31;;;;;;;6.43;4.53;;;;;;;25.16;45.81;102120.16;5055361;28;20411;-67
2022/07/05 08:23:59;;;;;;;7.80;4.55;;;;;;;25.29;45.44;102128.75;5054835;28;20041;-68
2022/07/05 08:26:27;;;;;;;10.63;4.78;;;;;;;25.44;45.45;102134.38;5054950;28;20053;-67
2022/07/05 08:28:53;;;;;;;10.02;5.53;;;;;;;25.52;45.13;102128.88;5055256;28;20458;-67
2022/07/05 08:31:40;;;;;;;7.30;4.70;;;;;;;25.57;44.85;102129.19;5055170;28;20560;-66
2022/07/05 08:34:11;;;;;;;6.85;4.63;;;;;;;25.63;44.54;102132.09;5055289;28;20057;-67
2022/07/05 08:36:41;;;;;;;5.95;4.45;;;;;;;25.67;44.59;102129.03;5054767;28;20060;-67
2022/07/05 08:39:08;;;;;;;5.78;4.40;;;;;;;25.73;44.56;102129.19;5055076;28;20091;-68
2022/07/05 08:41:39;;;;;;;5.18;3.53;;;;;;;25.80;44.56;102134.81;5055491;28;20060;-68
2022/07/05 08:44:10;;;;;;;6.28;4.22;;;;;;;25.88;44.40;102135.66;5055401;28;20120;-67
2022/07/05 08:46:40;;;;;;;5.00;4.10;;;;;;;25.98;44.02;102122.53;5055152;28;20045;-67
2022/07/05 08:49:07;;;;;;;7.68;4.30;;;;;;;26.05;43.66;102130.97;5055415;28;20115;-68
2022/07/05 08:51:40;;;;;;;5.43;3.97;;;;;;;26.13;43.89;102133.69;5055265;28;20144;-68
2022/07/05 08:54:11;;;;;;;5.68;3.80;;;;;;;26.24;43.52;102122.25;5054252;28;20088;-69
2022/07/05 08:56:41;;;;;;;6.15;3.42;;;;;;;26.29;43.42;102127.22;5053896;28;20585;-68
2022/07/05 08:59:28;;;;;;;6.45;3.08;;;;;;;26.40;42.78;102123.22;5053857;28;20102;-67
2022/07/05 09:01:56;;;;;;;6.35;3.88;;;;;;;26.50;42.95;102121.94;5053530;28;20037;-68
2022/07/05 09:04:29;;;;;;;5.47;3.90;;;;;;;26.65;43.09;102122.03;5054270;28;20128;-67
2022/07/05 09:07:01;;;;;;;9.10;4.85;;;;;;;26.78;42.30;102116.78;5054139;28;20043;-67
2022/07/05 09:09:29;;;;;;;5.25;4.00;;;;;;;26.84;42.15;102123.44;5053618;28;20051;-69
2022/07/05 09:11:56;;;;;;;7.47;3.83;;;;;;;26.88;41.95;102122.91;5052400;28;20071;-69
2022/07/05 09:14:48;;;;;;;6.00;3.90;;;;;;;26.98;41.66;102130.09;5053875;28;20060;-68
2022/07/05 09:17:15;;;;;;;11.43;4.90;;;;;;;26.97;41.46;102126.44;5052898;28;20493;-68
2022/07/05 09:19:42;;;;;;;7.60;4.78;;;;;;;27.04;41.48;102126.59;5053356;28;20059;-68
2022/07/05 09:22:09;;;;;;;5.97;3.40;;;;;;;27.18;41.35;102128.50;5053594;28;20487;-68
2022/07/05 09:24:45;;;;;;;4.10;2.90;;;;;;;27.27;40.85;102123.78;5053347;28;20045;-68
2022/07/05 09:27:13;;;;;;;8.32;3.45;;;;;;;27.42;40.59;102124.66;5053851;28;20494;-69
2022/07/05 09:29:54;;;;;;;4.28;3.30;;;;;;;27.55;40.67;102124.88;5053582;28;20049;-67
2022/07/05 09:32:30;;;;;;;6.72;3.40;;;;;;;27.66;40.49;102131.84;5051733;28;20427;-68
2022/07/05 09:34:58;;;;;;;5.05;3.50;;;;;;;27.74;39.95;102129.84;5053137;28;20463;-67
2022/07/05 09:37:44;;;;;;;5.00;3.80;;;;;;;27.74;39.53;102135.38;5053525;28;20051;-67
2022/07/05 09:40:10;;;;;;;6.30;3.78;;;;;;;27.73;39.55;102122.63;5053460;28;20045;-68
2022/07/05 09:42:47;;;;;;;;;;;;;;;27.74;39.71;102124.34;5053521;28;20045;-68
2022/07/05 09:45:24;;;;;;;4.35;2.10;;;;;;;27.78;39.33;102133.94;5052178;28;19921;-67
2022/07/05 09:47:54;;;;;;;5.13;3.00;;;;;;;27.77;38.86;102129.47;5055170;28;20068;-67
2022/07/05 09:50:40;;;;;;;6.97;3.00;;;;;;;27.79;38.28;102124.63;5055551;28;20052;-67
2022/07/05 09:53:50;;;;;;;5.93;3.50;;;;;;;27.77;38.09;102123.09;5055072;28;20048;-67
2022/07/05 09:56:29;;;;;;;5.05;3.53;;;;;;;27.74;38.10;102127.09;5055544;28;20041;-67
2022/07/05 09:58:56;;;;;;;6.32;3.38;;;;;;;27.69;38.28;102118.53;5055267;28;20041;-67
2022/07/05 10:01:26;;;;;;;4.78;3.15;;;;;;;27.74;38.08;102120.72;5057480;28;20045;-68
2022/07/05 10:03:57;;;;;;;7.32;3.42;;;;;;;27.79;38.13;102121.00;5055787;28;20068;-66
2022/07/05 10:06:26;;;;;;;4.45;2.50;;;;;;;27.85;38.09;102123.00;5053399;28;20122;-66
2022/07/05 10:08:52;;;;;;;4.15;2.05;;;;;;;27.92;37.82;102120.31;5053742;28;20045;-67
2022/07/05 10:11:23;;;;;;;3.60;2.08;;;;;;;28.00;37.38;102126.59;5053785;28;20041;-67
2022/07/05 10:13:58;;;;;;;7.80;1.70;;;;;;;28.07;37.12;102116.50;5052965;28;20442;-67
2022/07/05 10:16:25;;;;;;;6.22;2.50;;;;;;;28.10;36.82;102116.09;5053133;28;20037;-66
2022/07/05 10:18:55;;;;;;;5.90;2.30;;;;;;;28.11;36.44;102119.72;5053046;28;20507;-67
2022/07/05 10:21:24;;;;;;;6.80;2.83;;;;;;;28.06;36.41;102123.06;5053090;28;20048;-67
2022/07/05 10:23:55;;;;;;;4.30;2.38;;;;;;;28.01;36.47;102116.41;5051036;28;20076;-68
2022/07/05 10:26:23;;;;;;;5.65;2.55;;;;;;;27.96;36.17;102116.13;5053382;28;20063;-67
2022/07/05 10:28:52;;;;;;;4.05;2.33;;;;;;;27.89;35.92;102118.81;5052829;28;20491;-67
2022/07/05 10:31:29;;;;;;;4.55;2.33;;;;;;;27.84;36.00;102113.84;5052823;28;20106;-66
2022/07/05 10:34:07;;;;;;;6.35;2.45;;;;;;;27.84;36.06;102116.63;5052748;28;20124;-67
2022/07/05 10:36:53;;;;;;;4.95;2.58;;;;;;;27.85;35.90;102120.22;5052602;28;20079;-67
2022/07/05 10:39:23;;;;;;;3.28;2.15;;;;;;;27.82;35.81;102121.47;5052350;28;20395;-67
2022/07/05 10:41:51;;;;;;;4.72;1.95;;;;;;;27.81;35.64;102116.16;5052542;28;20499;-69
2022/07/05 10:44:33;;;;;;;4.35;1.73;;;;;;;27.73;35.37;102117.09;5052501;28;20140;-67
2022/07/05 10:47:11;;;;;;;3.65;2.10;;;;;;;27.73;35.44;102111.59;5052466;28;20056;-67
2022/07/05 10:49:39;;;;;;;5.28;2.33;;;;;;;27.81;35.61;102116.16;5052606;28;20056;-67
2022/07/05 10:52:28;;;;;;;4.38;2.58;;;;;;;27.87;35.42;102112.63;5052266;28;20047;-68
2022/07/05 10:55:17;;;;;;;7.10;2.42;;;;;;;27.87;35.54;102111.75;5052403;28;20055;-67
2022/07/05 10:57:44;;;;;;;4.05;2.47;;;;;;;27.85;35.61;102109.19;5052536;28;20132;-66
2022/07/05 11:00:11;;;;;;;4.55;2.38;;;;;;;27.82;35.41;102109.56;5052292;28;20033;-67
2022/07/05 11:02:42;;;;;;;8.07;3.08;;;;;;;27.80;35.73;102122.72;5052527;28;20710;-67
2022/07/05 11:05:09;;;;;;;4.63;2.70;;;;;;;27.85;36.00;102118.34;5052264;28;20057;-67
2022/07/05 11:07:57;;;;;;;5.13;2.30;;;;;;;27.92;35.84;102110.13;5052322;28;20051;-68
2022/07/05 11:10:24;;;;;;;2.58;2.00;;;;;;;27.95;35.46;102115.28;5052247;28;20045;-68
2022/07/05 11:12:53;;;;;;;4.18;1.85;;;;;;;27.95;35.57;102109.75;5052001;28;20041;-68
2022/07/05 11:15:19;;;;;;;3.83;2.80;;;;;;;28.02;34.84;102110.69;5050284;28;20053;-68
2022/07/05 11:17:46;;;;;;;4.20;2.42;;;;;;;28.14;35.50;102111.91;5052297;28;20041;-68
2022/07/05 11:20:32;;;;;;;3.55;2.42;;;;;;;28.31;35.34;102104.28;5052270;28;20044;-68
2022/07/05 11:23:04;;;;;;;4.35;2.47;;;;;;;28.32;35.48;102114.28;5052196;28;20055;-68
2022/07/05 11:25:33;;;;;;;4.53;2.67;;;;;;;28.31;35.23;102111.72;5051291;28;20072;-67
2022/07/05 11:28:17;;;;;;;5.22;2.78;;;;;;;28.15;34.50;102116.38;5052135;28;20041;-67
2022/07/05 11:30:56;;;;;;;6.95;2.50;;;;;;;28.04;34.58;102113.25;5052188;28;20518;-68
2022/07/05 11:33:32;;;;;;;4.32;2.78;;;;;;;27.90;34.97;102119.66;5052091;28;20071;-67
2022/07/05 11:36:00;;;;;;;6.82;3.40;;;;;;;27.71;34.99;102121.09;5051280;28;20053;-67
2022/07/05 11:38:28;;;;;;;4.55;3.15;;;;;;;27.50;35.15;102119.06;5050685;28;20250;-68
2022/07/05 11:41:15;;;;;;;5.95;2.80;;;;;;;27.26;35.08;102116.53;5052309;28;20052;-69